sensor_id;sensor_type;location;lat;lon;timestamp;temperature;humidity
20973;DHT22;10645;52.370;13.314;2023-04-24T00:00:31;8.40;99.90
20973;DHT22;10645;52.370;13.314;2023-04-24T00:02:57;8.40;99.90
20973;DHT22;10645;52.370;13.314;2023-04-24T00:05:24;8.40;99.90
20973;DHT22;10645;52.370;13.314;2023-04-24T00:07:50;8.40;99.90
20973;DHT22;10645;52.370;13.314;2023-04-24T00:10:19;8.40;99.90
20973;DHT22;10645;52.370;13.314;2023-04-24T00:12:45;8.40;99.90
20973;DHT22;10645;52.370;13.314;2023-04-24T00:15:12;8.40;99.90
20973;DHT22;10645;52.370;13.314;2023-04-24T00:17:38;8.40;99.90
20973;DHT22;10645;52.370;13.314;2023-04-24T00:20:05;8.30;99.90
20973;DHT22;10645;52.370;13.314;2023-04-24T00:22:33;8.30;99.90
20973;DHT22;10645;52.370;13.314;2023-04-24T00:24:59;8.40;99.90
20973;DHT22;10645;52.370;13.314;2023-04-24T00:27:25;8.40;99.90
20973;DHT22;10645;52.370;13.314;2023-04-24T00:29:51;8.40;99.90
20973;DHT22;10645;52.370;13.314;2023-04-24T00:32:17;8.40;99.90
20973;DHT22;10645;52.370;13.314;2023-04-24T00:34:43;8.40;99.90
20973;DHT22;10645;52.370;13.314;2023-04-24T00:37:09;8.40;99.90
20973;DHT22;10645;52.370;13.314;2023-04-24T00:39:36;8.40;99.90
20973;DHT22;10645;52.370;13.314;2023-04-24T00:42:03;8.40;99.90
20973;DHT22;10645;52.370;13.314;2023-04-24T00:44:29;8.40;99.90
20973;DHT22;10645;52.370;13.314;2023-04-24T00:46:55;8.50;99.90
20973;DHT22;10645;52.370;13.314;2023-04-24T00:49:21;8.50;99.90
20973;DHT22;10645;52.370;13.314;2023-04-24T00:51:48;8.50;99.90
20973;DHT22;10645;52.370;13.314;2023-04-24T00:54:15;8.60;99.90
20973;DHT22;10645;52.370;13.314;2023-04-24T00:56:42;8.60;99.90
20973;DHT22;10645;52.370;13.314;2023-04-24T00:59:10;8.70;99.90
20973;DHT22;10645;52.370;13.314;2023-04-24T01:01:38;8.70;99.90
20973;DHT22;10645;52.370;13.314;2023-04-24T01:04:09;8.60;99.90
20973;DHT22;10645;52.370;13.314;2023-04-24T01:06:38;8.70;99.90
20973;DHT22;10645;52.370;13.314;2023-04-24T01:09:05;8.70;99.90
20973;DHT22;10645;52.370;13.314;2023-04-24T01:11:31;8.70;99.90
20973;DHT22;10645;52.370;13.314;2023-04-24T01:13:57;8.80;99.90
20973;DHT22;10645;52.370;13.314;2023-04-24T01:16:24;8.80;99.90
20973;DHT22;10645;52.370;13.314;2023-04-24T01:18:50;8.80;99.90
20973;DHT22;10645;52.370;13.314;2023-04-24T01:21:18;8.80;99.90
20973;DHT22;10645;52.370;13.314;2023-04-24T01:23:47;8.80;99.90
20973;DHT22;10645;52.370;13.314;2023-04-24T01:26:16;8.80;99.90
20973;DHT22;10645;52.370;13.314;2023-04-24T01:28:42;8.80;99.90
20973;DHT22;10645;52.370;13.314;2023-04-24T01:31:08;8.80;99.90
20973;DHT22;10645;52.370;13.314;2023-04-24T01:33:35;8.70;99.90
20973;DHT22;10645;52.370;13.314;2023-04-24T01:36:01;8.70;99.90
20973;DHT22;10645;52.370;13.314;2023-04-24T01:38:27;8.60;99.90
20973;DHT22;10645;52.370;13.314;2023-04-24T01:40:53;8.70;99.90
20973;DHT22;10645;52.370;13.314;2023-04-24T01:43:20;8.60;99.90
20973;DHT22;10645;52.370;13.314;2023-04-24T01:45:46;8.50;99.90
20973;DHT22;10645;52.370;13.314;2023-04-24T01:48:13;8.50;99.90
20973;DHT22;10645;52.370;13.314;2023-04-24T01:50:39;8.50;99.90
20973;DHT22;10645;52.370;13.314;2023-04-24T01:53:05;8.50;99.90
20973;DHT22;10645;52.370;13.314;2023-04-24T01:55:31;8.50;99.90
20973;DHT22;10645;52.370;13.314;2023-04-24T01:57:59;8.40;99.90
20973;DHT22;10645;52.370;13.314;2023-04-24T02:00:26;8.40;99.90
20973;DHT22;10645;52.370;13.314;2023-04-24T02:02:52;8.40;99.90
20973;DHT22;10645;52.370;13.314;2023-04-24T02:05:19;8.40;99.90
20973;DHT22;10645;52.370;13.314;2023-04-24T02:07:45;8.30;99.90
20973;DHT22;10645;52.370;13.314;2023-04-24T02:10:11;8.30;99.90
20973;DHT22;10645;52.370;13.314;2023-04-24T02:12:42;8.20;99.90
20973;DHT22;10645;52.370;13.314;2023-04-24T02:15:08;8.20;99.90
20973;DHT22;10645;52.370;13.314;2023-04-24T02:17:37;8.20;99.90
20973;DHT22;10645;52.370;13.314;2023-04-24T02:20:05;8.20;99.90
20973;DHT22;10645;52.370;13.314;2023-04-24T02:22:31;8.20;99.90
20973;DHT22;10645;52.370;13.314;2023-04-24T02:25:01;8.20;99.90
20973;DHT22;10645;52.370;13.314;2023-04-24T02:27:27;8.20;99.90
20973;DHT22;10645;52.370;13.314;2023-04-24T02:29:53;8.20;99.90
20973;DHT22;10645;52.370;13.314;2023-04-24T02:32:19;8.20;99.90
20973;DHT22;10645;52.370;13.314;2023-04-24T02:34:45;8.20;99.90
20973;DHT22;10645;52.370;13.314;2023-04-24T02:37:12;8.20;99.90
20973;DHT22;10645;52.370;13.314;2023-04-24T02:39:38;8.30;99.90
20973;DHT22;10645;52.370;13.314;2023-04-24T02:42:04;8.40;99.90
20973;DHT22;10645;52.370;13.314;2023-04-24T02:44:31;8.40;99.90
20973;DHT22;10645;52.370;13.314;2023-04-24T02:46:57;8.50;99.90
20973;DHT22;10645;52.370;13.314;2023-04-24T02:49:23;8.50;99.90
20973;DHT22;10645;52.370;13.314;2023-04-24T02:51:49;8.60;99.90
20973;DHT22;10645;52.370;13.314;2023-04-24T02:54:15;8.60;99.90
20973;DHT22;10645;52.370;13.314;2023-04-24T02:56:41;8.60;99.90
20973;DHT22;10645;52.370;13.314;2023-04-24T02:59:08;8.60;99.90
20973;DHT22;10645;52.370;13.314;2023-04-24T03:01:34;8.60;99.90
20973;DHT22;10645;52.370;13.314;2023-04-24T03:04:01;8.60;99.90
20973;DHT22;10645;52.370;13.314;2023-04-24T03:06:27;8.70;99.90
20973;DHT22;10645;52.370;13.314;2023-04-24T03:08:53;8.80;99.90
20973;DHT22;10645;52.370;13.314;2023-04-24T03:11:20;8.90;99.90
20973;DHT22;10645;52.370;13.314;2023-04-24T03:13:46;9.00;99.90
20973;DHT22;10645;52.370;13.314;2023-04-24T03:16:13;9.10;99.90
20973;DHT22;10645;52.370;13.314;2023-04-24T03:18:39;9.10;99.90
20973;DHT22;10645;52.370;13.314;2023-04-24T03:21:06;9.10;99.90
20973;DHT22;10645;52.370;13.314;2023-04-24T03:23:32;9.10;99.90
20973;DHT22;10645;52.370;13.314;2023-04-24T03:25:58;9.10;99.90
20973;DHT22;10645;52.370;13.314;2023-04-24T03:28:25;9.20;99.90
20973;DHT22;10645;52.370;13.314;2023-04-24T03:30:58;9.20;99.90
20973;DHT22;10645;52.370;13.314;2023-04-24T03:33:26;9.20;99.90
20973;DHT22;10645;52.370;13.314;2023-04-24T03:36:02;9.10;99.90
20973;DHT22;10645;52.370;13.314;2023-04-24T03:38:35;9.20;99.90
20973;DHT22;10645;52.370;13.314;2023-04-24T03:41:20;9.20;99.90
20973;DHT22;10645;52.370;13.314;2023-04-24T03:43:52;9.20;99.90
20973;DHT22;10645;52.370;13.314;2023-04-24T03:46:19;9.20;99.90
20973;DHT22;10645;52.370;13.314;2023-04-24T03:48:52;9.20;99.90
20973;DHT22;10645;52.370;13.314;2023-04-24T03:51:21;9.20;99.90
20973;DHT22;10645;52.370;13.314;2023-04-24T03:53:50;9.20;99.90
20973;DHT22;10645;52.370;13.314;2023-04-24T03:56:19;9.20;99.90
20973;DHT22;10645;52.370;13.314;2023-04-24T03:58:46;9.30;99.90
20973;DHT22;10645;52.370;13.314;2023-04-24T04:01:12;9.30;99.90
20973;DHT22;10645;52.370;13.314;2023-04-24T04:03:46;9.30;99.90
20973;DHT22;10645;52.370;13.314;2023-04-24T04:06:16;9.30;99.90
20973;DHT22;10645;52.370;13.314;2023-04-24T04:08:42;9.30;99.90
20973;DHT22;10645;52.370;13.314;2023-04-24T04:11:08;9.30;99.90
20973;DHT22;10645;52.370;13.314;2023-04-24T04:13:34;9.30;99.90
20973;DHT22;10645;52.370;13.314;2023-04-24T04:16:00;9.20;99.90
20973;DHT22;10645;52.370;13.314;2023-04-24T04:18:27;9.20;99.90
20973;DHT22;10645;52.370;13.314;2023-04-24T04:20:53;9.30;99.90
20973;DHT22;10645;52.370;13.314;2023-04-24T04:23:19;9.30;99.90
20973;DHT22;10645;52.370;13.314;2023-04-24T04:25:58;9.40;99.90
20973;DHT22;10645;52.370;13.314;2023-04-24T04:28:34;9.50;99.90
20973;DHT22;10645;52.370;13.314;2023-04-24T04:31:01;9.70;99.90
20973;DHT22;10645;52.370;13.314;2023-04-24T04:33:27;9.70;99.90
20973;DHT22;10645;52.370;13.314;2023-04-24T04:35:54;9.90;99.90
20973;DHT22;10645;52.370;13.314;2023-04-24T04:38:23;10.00;99.90
20973;DHT22;10645;52.370;13.314;2023-04-24T04:40:58;10.10;99.90
20973;DHT22;10645;52.370;13.314;2023-04-24T04:43:30;10.20;99.90
20973;DHT22;10645;52.370;13.314;2023-04-24T04:45:57;10.30;99.90
20973;DHT22;10645;52.370;13.314;2023-04-24T04:48:32;10.40;99.90
20973;DHT22;10645;52.370;13.314;2023-04-24T04:51:01;10.50;99.90
20973;DHT22;10645;52.370;13.314;2023-04-24T04:53:28;10.50;99.90
20973;DHT22;10645;52.370;13.314;2023-04-24T04:55:54;10.60;99.90
20973;DHT22;10645;52.370;13.314;2023-04-24T04:58:24;10.70;99.90
20973;DHT22;10645;52.370;13.314;2023-04-24T05:00:54;10.80;99.90
20973;DHT22;10645;52.370;13.314;2023-04-24T05:03:28;10.90;99.90
20973;DHT22;10645;52.370;13.314;2023-04-24T05:06:03;11.00;99.90
20973;DHT22;10645;52.370;13.314;2023-04-24T05:08:32;11.10;99.90
20973;DHT22;10645;52.370;13.314;2023-04-24T05:10:59;11.20;99.90
20973;DHT22;10645;52.370;13.314;2023-04-24T05:13:27;11.30;99.90
20973;DHT22;10645;52.370;13.314;2023-04-24T05:15:54;11.40;99.90
20973;DHT22;10645;52.370;13.314;2023-04-24T05:18:20;11.40;99.90
20973;DHT22;10645;52.370;13.314;2023-04-24T05:20:46;11.50;99.90
20973;DHT22;10645;52.370;13.314;2023-04-24T05:23:13;11.50;99.90
20973;DHT22;10645;52.370;13.314;2023-04-24T05:25:41;11.60;99.90
20973;DHT22;10645;52.370;13.314;2023-04-24T05:28:11;11.60;99.90
20973;DHT22;10645;52.370;13.314;2023-04-24T05:30:38;11.60;99.90
20973;DHT22;10645;52.370;13.314;2023-04-24T05:33:04;11.70;99.90
20973;DHT22;10645;52.370;13.314;2023-04-24T05:35:34;11.80;99.90
20973;DHT22;10645;52.370;13.314;2023-04-24T05:38:01;11.80;99.90
20973;DHT22;10645;52.370;13.314;2023-04-24T05:40:27;11.90;99.90
20973;DHT22;10645;52.370;13.314;2023-04-24T05:42:53;11.90;99.90
20973;DHT22;10645;52.370;13.314;2023-04-24T05:45:20;11.90;99.90
20973;DHT22;10645;52.370;13.314;2023-04-24T05:47:46;11.90;99.90
20973;DHT22;10645;52.370;13.314;2023-04-24T05:50:13;12.00;99.90
20973;DHT22;10645;52.370;13.314;2023-04-24T05:52:39;12.00;99.90
20973;DHT22;10645;52.370;13.314;2023-04-24T05:55:17;12.00;99.90
20973;DHT22;10645;52.370;13.314;2023-04-24T05:57:44;12.20;99.90
20973;DHT22;10645;52.370;13.314;2023-04-24T06:00:11;12.30;99.90
20973;DHT22;10645;52.370;13.314;2023-04-24T06:02:47;12.40;99.90
20973;DHT22;10645;52.370;13.314;2023-04-24T06:05:13;12.50;99.90
20973;DHT22;10645;52.370;13.314;2023-04-24T06:07:40;12.60;99.90
20973;DHT22;10645;52.370;13.314;2023-04-24T06:10:08;12.70;99.90
20973;DHT22;10645;52.370;13.314;2023-04-24T06:12:40;12.80;99.90
20973;DHT22;10645;52.370;13.314;2023-04-24T06:15:11;12.90;99.90
20973;DHT22;10645;52.370;13.314;2023-04-24T06:18:07;13.00;99.90
20973;DHT22;10645;52.370;13.314;2023-04-24T06:20:36;13.00;99.90
20973;DHT22;10645;52.370;13.314;2023-04-24T06:23:03;13.10;99.90
20973;DHT22;10645;52.370;13.314;2023-04-24T06:25:29;13.20;99.90
20973;DHT22;10645;52.370;13.314;2023-04-24T06:27:55;13.30;99.90
20973;DHT22;10645;52.370;13.314;2023-04-24T06:30:21;13.50;99.90
20973;DHT22;10645;52.370;13.314;2023-04-24T06:32:47;13.70;99.90
20973;DHT22;10645;52.370;13.314;2023-04-24T06:35:15;13.80;99.90
20973;DHT22;10645;52.370;13.314;2023-04-24T06:37:42;14.00;99.90
20973;DHT22;10645;52.370;13.314;2023-04-24T06:40:09;14.00;99.90
20973;DHT22;10645;52.370;13.314;2023-04-24T06:42:35;14.10;99.90
20973;DHT22;10645;52.370;13.314;2023-04-24T06:45:03;14.20;99.90
20973;DHT22;10645;52.370;13.314;2023-04-24T06:47:31;14.30;99.90
20973;DHT22;10645;52.370;13.314;2023-04-24T06:49:57;14.40;99.90
20973;DHT22;10645;52.370;13.314;2023-04-24T06:52:23;14.50;99.90
20973;DHT22;10645;52.370;13.314;2023-04-24T06:54:49;14.60;99.90
20973;DHT22;10645;52.370;13.314;2023-04-24T06:57:15;14.70;99.90
20973;DHT22;10645;52.370;13.314;2023-04-24T06:59:44;14.70;99.90
20973;DHT22;10645;52.370;13.314;2023-04-24T07:02:10;14.70;99.90
20973;DHT22;10645;52.370;13.314;2023-04-24T07:04:36;14.70;99.90
20973;DHT22;10645;52.370;13.314;2023-04-24T07:07:02;14.70;99.90
20973;DHT22;10645;52.370;13.314;2023-04-24T07:09:30;14.80;99.90
20973;DHT22;10645;52.370;13.314;2023-04-24T07:11:56;14.70;99.90
20973;DHT22;10645;52.370;13.314;2023-04-24T07:14:22;14.70;99.90
20973;DHT22;10645;52.370;13.314;2023-04-24T07:16:48;14.80;99.90
20973;DHT22;10645;52.370;13.314;2023-04-24T07:19:14;14.90;99.90
20973;DHT22;10645;52.370;13.314;2023-04-24T07:21:40;14.90;99.90
20973;DHT22;10645;52.370;13.314;2023-04-24T07:24:07;15.00;99.90
20973;DHT22;10645;52.370;13.314;2023-04-24T07:26:37;15.10;99.90
20973;DHT22;10645;52.370;13.314;2023-04-24T07:29:03;15.00;99.90
20973;DHT22;10645;52.370;13.314;2023-04-24T07:31:30;15.10;99.90
20973;DHT22;10645;52.370;13.314;2023-04-24T07:33:56;15.20;99.90
20973;DHT22;10645;52.370;13.314;2023-04-24T07:36:24;15.30;99.90
20973;DHT22;10645;52.370;13.314;2023-04-24T07:38:51;15.40;99.90
20973;DHT22;10645;52.370;13.314;2023-04-24T07:41:18;15.50;99.90
20973;DHT22;10645;52.370;13.314;2023-04-24T07:43:44;15.50;99.90
20973;DHT22;10645;52.370;13.314;2023-04-24T07:46:11;15.60;99.90
20973;DHT22;10645;52.370;13.314;2023-04-24T07:48:37;15.60;99.90
20973;DHT22;10645;52.370;13.314;2023-04-24T07:51:03;15.80;99.90
20973;DHT22;10645;52.370;13.314;2023-04-24T07:53:29;16.20;99.90
20973;DHT22;10645;52.370;13.314;2023-04-24T07:55:56;16.50;99.90
20973;DHT22;10645;52.370;13.314;2023-04-24T07:58:22;16.60;99.90
20973;DHT22;10645;52.370;13.314;2023-04-24T08:00:48;16.70;99.90
20973;DHT22;10645;52.370;13.314;2023-04-24T08:03:14;16.90;99.90
20973;DHT22;10645;52.370;13.314;2023-04-24T08:05:41;17.00;99.90
20973;DHT22;10645;52.370;13.314;2023-04-24T08:08:08;17.20;99.90
20973;DHT22;10645;52.370;13.314;2023-04-24T08:10:34;17.40;99.90
20973;DHT22;10645;52.370;13.314;2023-04-24T08:13:00;17.30;99.90
20973;DHT22;10645;52.370;13.314;2023-04-24T08:15:27;17.20;99.90
20973;DHT22;10645;52.370;13.314;2023-04-24T08:17:53;17.10;99.90
20973;DHT22;10645;52.370;13.314;2023-04-24T08:20:19;17.00;99.90
20973;DHT22;10645;52.370;13.314;2023-04-24T08:22:45;17.10;99.90
20973;DHT22;10645;52.370;13.314;2023-04-24T08:25:13;17.40;99.90
20973;DHT22;10645;52.370;13.314;2023-04-24T08:27:39;17.50;99.90
20973;DHT22;10645;52.370;13.314;2023-04-24T08:30:06;17.50;99.90
20973;DHT22;10645;52.370;13.314;2023-04-24T08:32:32;17.50;99.90
20973;DHT22;10645;52.370;13.314;2023-04-24T08:34:59;17.50;99.90
20973;DHT22;10645;52.370;13.314;2023-04-24T08:37:26;17.40;99.90
20973;DHT22;10645;52.370;13.314;2023-04-24T08:39:53;17.50;99.90
20973;DHT22;10645;52.370;13.314;2023-04-24T08:42:20;17.80;99.90
20973;DHT22;10645;52.370;13.314;2023-04-24T08:44:48;18.20;99.90
20973;DHT22;10645;52.370;13.314;2023-04-24T08:47:15;18.00;99.90
20973;DHT22;10645;52.370;13.314;2023-04-24T08:49:41;18.00;99.90
20973;DHT22;10645;52.370;13.314;2023-04-24T08:52:08;18.00;99.90
20973;DHT22;10645;52.370;13.314;2023-04-24T08:54:35;18.00;99.90
20973;DHT22;10645;52.370;13.314;2023-04-24T08:57:02;17.90;99.90
20973;DHT22;10645;52.370;13.314;2023-04-24T08:59:30;17.70;99.90
20973;DHT22;10645;52.370;13.314;2023-04-24T09:01:57;17.70;99.90
20973;DHT22;10645;52.370;13.314;2023-04-24T09:04:24;17.70;99.90
20973;DHT22;10645;52.370;13.314;2023-04-24T09:06:55;17.50;99.90
20973;DHT22;10645;52.370;13.314;2023-04-24T09:09:22;17.50;99.90
20973;DHT22;10645;52.370;13.314;2023-04-24T09:11:50;17.50;99.90
20973;DHT22;10645;52.370;13.314;2023-04-24T09:14:17;17.60;99.90
20973;DHT22;10645;52.370;13.314;2023-04-24T09:16:43;17.50;99.90
20973;DHT22;10645;52.370;13.314;2023-04-24T09:19:09;17.80;99.90
20973;DHT22;10645;52.370;13.314;2023-04-24T09:21:35;17.90;99.90
20973;DHT22;10645;52.370;13.314;2023-04-24T09:24:05;17.90;99.90
20973;DHT22;10645;52.370;13.314;2023-04-24T09:26:34;17.80;99.90
20973;DHT22;10645;52.370;13.314;2023-04-24T09:29:00;17.80;99.90
20973;DHT22;10645;52.370;13.314;2023-04-24T09:31:28;17.80;99.90
20973;DHT22;10645;52.370;13.314;2023-04-24T09:33:54;17.60;99.90
20973;DHT22;10645;52.370;13.314;2023-04-24T09:36:32;17.50;99.90
20973;DHT22;10645;52.370;13.314;2023-04-24T09:39:08;17.60;99.90
20973;DHT22;10645;52.370;13.314;2023-04-24T09:41:54;17.60;99.90
20973;DHT22;10645;52.370;13.314;2023-04-24T09:44:24;17.60;99.90
20973;DHT22;10645;52.370;13.314;2023-04-24T09:46:53;17.70;99.90
20973;DHT22;10645;52.370;13.314;2023-04-24T09:49:24;17.90;99.90
20973;DHT22;10645;52.370;13.314;2023-04-24T09:51:51;18.10;99.90
20973;DHT22;10645;52.370;13.314;2023-04-24T09:54:21;17.90;99.90
20973;DHT22;10645;52.370;13.314;2023-04-24T09:56:51;18.10;99.90
20973;DHT22;10645;52.370;13.314;2023-04-24T09:59:18;18.20;99.90
20973;DHT22;10645;52.370;13.314;2023-04-24T10:01:45;18.50;99.90
20973;DHT22;10645;52.370;13.314;2023-04-24T10:04:24;18.80;99.90
20973;DHT22;10645;52.370;13.314;2023-04-24T10:06:52;19.10;99.90
20973;DHT22;10645;52.370;13.314;2023-04-24T10:09:20;19.20;99.90
20973;DHT22;10645;52.370;13.314;2023-04-24T10:11:48;18.60;99.90
20973;DHT22;10645;52.370;13.314;2023-04-24T10:14:20;18.60;99.90
20973;DHT22;10645;52.370;13.314;2023-04-24T10:16:49;18.80;99.90
20973;DHT22;10645;52.370;13.314;2023-04-24T10:19:16;18.70;99.90
20973;DHT22;10645;52.370;13.314;2023-04-24T10:21:44;18.50;99.90
20973;DHT22;10645;52.370;13.314;2023-04-24T10:24:14;18.20;99.90
20973;DHT22;10645;52.370;13.314;2023-04-24T10:26:41;18.10;99.90
20973;DHT22;10645;52.370;13.314;2023-04-24T10:29:08;17.80;99.90
20973;DHT22;10645;52.370;13.314;2023-04-24T10:31:36;17.50;99.90
20973;DHT22;10645;52.370;13.314;2023-04-24T10:34:04;17.30;99.90
20973;DHT22;10645;52.370;13.314;2023-04-24T10:36:34;17.20;99.90
20973;DHT22;10645;52.370;13.314;2023-04-24T10:39:03;16.90;99.90
20973;DHT22;10645;52.370;13.314;2023-04-24T10:41:31;16.80;99.90
20973;DHT22;10645;52.370;13.314;2023-04-24T10:44:12;16.60;99.90
20973;DHT22;10645;52.370;13.314;2023-04-24T10:46:42;16.70;99.90
20973;DHT22;10645;52.370;13.314;2023-04-24T10:49:09;16.80;99.90
20973;DHT22;10645;52.370;13.314;2023-04-24T10:51:45;17.30;99.90
20973;DHT22;10645;52.370;13.314;2023-04-24T10:54:33;17.90;99.90
20973;DHT22;10645;52.370;13.314;2023-04-24T10:59:44;19.20;99.90
20973;DHT22;10645;52.370;13.314;2023-04-24T11:02:11;19.10;99.90
20973;DHT22;10645;52.370;13.314;2023-04-24T11:04:39;19.00;99.90
20973;DHT22;10645;52.370;13.314;2023-04-24T11:07:06;18.70;99.90
20973;DHT22;10645;52.370;13.314;2023-04-24T11:09:32;18.50;99.90
20973;DHT22;10645;52.370;13.314;2023-04-24T11:12:11;18.40;99.90
20973;DHT22;10645;52.370;13.314;2023-04-24T11:14:59;17.70;99.90
20973;DHT22;10645;52.370;13.314;2023-04-24T11:17:34;16.90;99.90
20973;DHT22;10645;52.370;13.314;2023-04-24T11:20:07;16.10;99.90
20973;DHT22;10645;52.370;13.314;2023-04-24T11:22:36;15.70;99.90
20973;DHT22;10645;52.370;13.314;2023-04-24T11:25:03;15.70;99.90
20973;DHT22;10645;52.370;13.314;2023-04-24T11:27:40;15.90;99.90
20973;DHT22;10645;52.370;13.314;2023-04-24T11:30:07;16.40;99.90
20973;DHT22;10645;52.370;13.314;2023-04-24T11:37:45;17.10;99.90
20973;DHT22;10645;52.370;13.314;2023-04-24T11:40:13;17.30;99.90
20973;DHT22;10645;52.370;13.314;2023-04-24T11:42:43;17.50;99.90
20973;DHT22;10645;52.370;13.314;2023-04-24T11:45:11;17.50;99.90
20973;DHT22;10645;52.370;13.314;2023-04-24T11:47:39;17.70;99.90
20973;DHT22;10645;52.370;13.314;2023-04-24T11:50:08;17.50;99.90
20973;DHT22;10645;52.370;13.314;2023-04-24T11:52:43;17.60;99.90
20973;DHT22;10645;52.370;13.314;2023-04-24T11:57:49;18.80;99.90
20973;DHT22;10645;52.370;13.314;2023-04-24T12:02:42;18.70;99.90
20973;DHT22;10645;52.370;13.314;2023-04-24T12:05:09;18.50;99.90
20973;DHT22;10645;52.370;13.314;2023-04-24T12:07:41;18.30;99.90
20973;DHT22;10645;52.370;13.314;2023-04-24T12:10:10;18.30;99.90
20973;DHT22;10645;52.370;13.314;2023-04-24T12:12:36;18.00;99.90
20973;DHT22;10645;52.370;13.314;2023-04-24T12:15:07;18.10;99.90
20973;DHT22;10645;52.370;13.314;2023-04-24T12:17:34;18.40;99.90
20973;DHT22;10645;52.370;13.314;2023-04-24T12:22:51;18.40;99.90
20973;DHT22;10645;52.370;13.314;2023-04-24T12:25:21;18.10;99.90
20973;DHT22;10645;52.370;13.314;2023-04-24T12:27:53;18.30;99.90
20973;DHT22;10645;52.370;13.314;2023-04-24T12:30:19;18.30;99.90
20973;DHT22;10645;52.370;13.314;2023-04-24T12:32:47;18.10;99.90
20973;DHT22;10645;52.370;13.314;2023-04-24T12:35:18;18.10;99.90
20973;DHT22;10645;52.370;13.314;2023-04-24T12:37:45;18.00;99.90
20973;DHT22;10645;52.370;13.314;2023-04-24T12:40:12;17.90;99.90
20973;DHT22;10645;52.370;13.314;2023-04-24T12:42:44;17.90;99.90
20973;DHT22;10645;52.370;13.314;2023-04-24T12:45:10;17.80;99.20
20973;DHT22;10645;52.370;13.314;2023-04-24T12:47:38;17.90;99.50
20973;DHT22;10645;52.370;13.314;2023-04-24T12:50:06;17.90;99.50
20973;DHT22;10645;52.370;13.314;2023-04-24T12:52:34;18.00;99.90
20973;DHT22;10645;52.370;13.314;2023-04-24T12:55:00;18.00;99.20
20973;DHT22;10645;52.370;13.314;2023-04-24T12:57:28;17.90;99.20
20973;DHT22;10645;52.370;13.314;2023-04-24T12:59:56;17.80;98.60
20973;DHT22;10645;52.370;13.314;2023-04-24T13:02:23;18.20;98.30
20973;DHT22;10645;52.370;13.314;2023-04-24T13:04:50;18.70;98.50
20973;DHT22;10645;52.370;13.314;2023-04-24T13:07:17;19.30;99.90
20973;DHT22;10645;52.370;13.314;2023-04-24T13:09:44;19.20;97.20
20973;DHT22;10645;52.370;13.314;2023-04-24T13:12:11;18.90;97.60
20973;DHT22;10645;52.370;13.314;2023-04-24T13:14:37;18.50;96.00
20973;DHT22;10645;52.370;13.314;2023-04-24T13:17:04;18.30;96.50
20973;DHT22;10645;52.370;13.314;2023-04-24T13:19:34;18.70;96.90
20973;DHT22;10645;52.370;13.314;2023-04-24T13:22:01;18.70;95.80
20973;DHT22;10645;52.370;13.314;2023-04-24T13:24:27;18.80;95.40
20973;DHT22;10645;52.370;13.314;2023-04-24T13:26:53;18.80;96.90
20973;DHT22;10645;52.370;13.314;2023-04-24T13:29:20;19.00;96.30
20973;DHT22;10645;52.370;13.314;2023-04-24T13:31:46;19.00;93.90
20973;DHT22;10645;52.370;13.314;2023-04-24T13:34:13;19.00;94.80
20973;DHT22;10645;52.370;13.314;2023-04-24T13:36:39;19.00;95.00
20973;DHT22;10645;52.370;13.314;2023-04-24T13:39:06;18.90;95.60
20973;DHT22;10645;52.370;13.314;2023-04-24T13:41:33;19.00;94.90
20973;DHT22;10645;52.370;13.314;2023-04-24T13:43:59;18.90;95.10
20973;DHT22;10645;52.370;13.314;2023-04-24T13:46:25;18.90;95.30
20973;DHT22;10645;52.370;13.314;2023-04-24T13:48:51;18.80;94.20
20973;DHT22;10645;52.370;13.314;2023-04-24T13:51:18;18.80;93.30
20973;DHT22;10645;52.370;13.314;2023-04-24T13:53:44;18.80;95.50
20973;DHT22;10645;52.370;13.314;2023-04-24T13:56:10;18.50;94.90
20973;DHT22;10645;52.370;13.314;2023-04-24T13:58:38;18.40;94.50
20973;DHT22;10645;52.370;13.314;2023-04-24T14:01:04;18.20;94.00
20973;DHT22;10645;52.370;13.314;2023-04-24T14:03:30;18.40;95.70
20973;DHT22;10645;52.370;13.314;2023-04-24T14:05:56;18.80;94.50
20973;DHT22;10645;52.370;13.314;2023-04-24T14:08:23;19.10;93.70
20973;DHT22;10645;52.370;13.314;2023-04-24T14:10:50;19.10;93.80
20973;DHT22;10645;52.370;13.314;2023-04-24T14:13:16;19.30;92.60
20973;DHT22;10645;52.370;13.314;2023-04-24T14:15:42;19.10;92.70
20973;DHT22;10645;52.370;13.314;2023-04-24T14:18:09;19.00;92.90
20973;DHT22;10645;52.370;13.314;2023-04-24T14:20:35;18.80;91.90
20973;DHT22;10645;52.370;13.314;2023-04-24T14:23:01;18.40;92.70
20973;DHT22;10645;52.370;13.314;2023-04-24T14:25:27;18.40;93.50
20973;DHT22;10645;52.370;13.314;2023-04-24T14:27:53;18.60;93.40
20973;DHT22;10645;52.370;13.314;2023-04-24T14:30:20;18.80;93.50
20973;DHT22;10645;52.370;13.314;2023-04-24T14:32:46;18.80;92.70
20973;DHT22;10645;52.370;13.314;2023-04-24T14:35:12;18.80;93.50
20973;DHT22;10645;52.370;13.314;2023-04-24T14:37:39;18.90;92.20
20973;DHT22;10645;52.370;13.314;2023-04-24T14:40:07;18.90;90.90
20973;DHT22;10645;52.370;13.314;2023-04-24T14:42:34;18.90;91.90
20973;DHT22;10645;52.370;13.314;2023-04-24T14:45:01;18.70;91.70
20973;DHT22;10645;52.370;13.314;2023-04-24T14:47:27;18.40;91.90
20973;DHT22;10645;52.370;13.314;2023-04-24T14:49:53;18.00;92.90
20973;DHT22;10645;52.370;13.314;2023-04-24T14:52:19;17.90;93.90
20973;DHT22;10645;52.370;13.314;2023-04-24T14:54:45;17.80;93.90
20973;DHT22;10645;52.370;13.314;2023-04-24T14:57:12;17.50;93.80
20973;DHT22;10645;52.370;13.314;2023-04-24T14:59:38;17.60;94.00
20973;DHT22;10645;52.370;13.314;2023-04-24T15:02:06;17.60;94.00
20973;DHT22;10645;52.370;13.314;2023-04-24T15:04:32;17.90;94.50
20973;DHT22;10645;52.370;13.314;2023-04-24T15:06:58;17.90;93.70
20973;DHT22;10645;52.370;13.314;2023-04-24T15:09:24;17.80;94.00
20973;DHT22;10645;52.370;13.314;2023-04-24T15:11:52;17.60;94.10
20973;DHT22;10645;52.370;13.314;2023-04-24T15:14:18;17.60;93.90
20973;DHT22;10645;52.370;13.314;2023-04-24T15:16:44;17.50;93.70
20973;DHT22;10645;52.370;13.314;2023-04-24T15:19:11;17.40;94.10
20973;DHT22;10645;52.370;13.314;2023-04-24T15:21:37;17.30;93.80
20973;DHT22;10645;52.370;13.314;2023-04-24T15:24:06;17.20;94.40
20973;DHT22;10645;52.370;13.314;2023-04-24T15:26:33;17.10;94.50
20973;DHT22;10645;52.370;13.314;2023-04-24T15:28:59;16.90;93.60
20973;DHT22;10645;52.370;13.314;2023-04-24T15:31:25;16.60;94.40
20973;DHT22;10645;52.370;13.314;2023-04-24T15:33:51;16.50;94.20
20973;DHT22;10645;52.370;13.314;2023-04-24T15:36:18;16.40;95.20
20973;DHT22;10645;52.370;13.314;2023-04-24T15:38:44;16.30;95.70